sensor_id;sensor_type;location;lat;lon;timestamp;P1;durP1;ratioP1;P2;durP2;ratioP2
65358;SDS011;52491;45.900;6.346;2022-11-15T00:00:43;3.45;;;2.90;;
65358;SDS011;52491;45.900;6.346;2022-11-15T00:03:09;4.13;;;2.95;;
65358;SDS011;52491;45.900;6.346;2022-11-15T00:05:35;3.65;;;2.88;;
65358;SDS011;52491;45.900;6.346;2022-11-15T00:08:01;3.42;;;2.30;;
65358;SDS011;52491;45.900;6.346;2022-11-15T00:10:26;4.75;;;2.63;;
65358;SDS011;52491;45.900;6.346;2022-11-15T00:12:52;3.70;;;2.25;;
65358;SDS011;52491;45.900;6.346;2022-11-15T00:15:18;3.08;;;2.33;;
65358;SDS011;52491;45.900;6.346;2022-11-15T00:17:43;3.67;;;2.22;;
65358;SDS011;52491;45.900;6.346;2022-11-15T00:20:09;4.20;;;2.45;;
65358;SDS011;52491;45.900;6.346;2022-11-15T00:22:35;5.00;;;3.33;;
65358;SDS011;52491;45.900;6.346;2022-11-15T00:25:00;3.45;;;2.35;;
65358;SDS011;52491;45.900;6.346;2022-11-15T00:27:26;5.57;;;2.63;;
65358;SDS011;52491;45.900;6.346;2022-11-15T00:29:52;4.35;;;2.83;;
65358;SDS011;52491;45.900;6.346;2022-11-15T00:32:18;4.82;;;2.50;;
65358;SDS011;52491;45.900;6.346;2022-11-15T00:34:43;4.07;;;2.45;;
65358;SDS011;52491;45.900;6.346;2022-11-15T00:37:09;4.40;;;2.10;;
65358;SDS011;52491;45.900;6.346;2022-11-15T00:39:34;4.63;;;2.33;;
65358;SDS011;52491;45.900;6.346;2022-11-15T00:42:00;3.70;;;2.33;;
65358;SDS011;52491;45.900;6.346;2022-11-15T00:44:26;4.10;;;2.50;;
65358;SDS011;52491;45.900;6.346;2022-11-15T00:46:51;4.65;;;2.80;;
65358;SDS011;52491;45.900;6.346;2022-11-15T00:49:17;4.00;;;2.25;;
65358;SDS011;52491;45.900;6.346;2022-11-15T00:51:42;3.08;;;2.15;;
65358;SDS011;52491;45.900;6.346;2022-11-15T00:54:08;3.47;;;2.53;;
65358;SDS011;52491;45.900;6.346;2022-11-15T00:56:33;2.80;;;2.28;;
65358;SDS011;52491;45.900;6.346;2022-11-15T00:58:59;4.90;;;3.50;;
65358;SDS011;52491;45.900;6.346;2022-11-15T01:01:25;4.15;;;2.60;;
65358;SDS011;52491;45.900;6.346;2022-11-15T01:03:50;3.28;;;1.67;;
65358;SDS011;52491;45.900;6.346;2022-11-15T01:06:16;4.45;;;2.20;;
65358;SDS011;52491;45.900;6.346;2022-11-15T01:08:41;3.70;;;2.08;;
65358;SDS011;52491;45.900;6.346;2022-11-15T01:11:08;5.47;;;3.53;;
65358;SDS011;52491;45.900;6.346;2022-11-15T01:13:36;2.83;;;1.65;;
65358;SDS011;52491;45.900;6.346;2022-11-15T01:16:12;2.53;;;1.73;;
65358;SDS011;52491;45.900;6.346;2022-11-15T01:18:39;4.15;;;2.42;;
65358;SDS011;52491;45.900;6.346;2022-11-15T01:21:09;2.97;;;1.80;;
65358;SDS011;52491;45.900;6.346;2022-11-15T01:23:36;3.72;;;2.53;;
65358;SDS011;52491;45.900;6.346;2022-11-15T01:26:03;2.45;;;1.92;;
65358;SDS011;52491;45.900;6.346;2022-11-15T01:28:34;5.53;;;1.92;;
65358;SDS011;52491;45.900;6.346;2022-11-15T01:31:01;3.38;;;1.83;;
65358;SDS011;52491;45.900;6.346;2022-11-15T01:33:28;2.63;;;1.95;;
65358;SDS011;52491;45.900;6.346;2022-11-15T01:35:55;3.25;;;2.20;;
65358;SDS011;52491;45.900;6.346;2022-11-15T01:38:21;2.33;;;1.65;;
65358;SDS011;52491;45.900;6.346;2022-11-15T01:40:47;6.28;;;2.17;;
65358;SDS011;52491;45.900;6.346;2022-11-15T01:49:10;1.55;;;1.20;;
65358;SDS011;52491;45.900;6.346;2022-11-15T01:51:39;3.05;;;1.58;;
65358;SDS011;52491;45.900;6.346;2022-11-15T01:54:06;2.72;;;1.77;;
65358;SDS011;52491;45.900;6.346;2022-11-15T01:56:38;2.67;;;1.80;;
65358;SDS011;52491;45.900;6.346;2022-11-15T01:59:08;2.13;;;1.52;;
65358;SDS011;52491;45.900;6.346;2022-11-15T02:01:35;3.80;;;1.50;;
65358;SDS011;52491;45.900;6.346;2022-11-15T02:04:04;3.70;;;1.70;;
65358;SDS011;52491;45.900;6.346;2022-11-15T02:06:36;1.90;;;1.43;;
65358;SDS011;52491;45.900;6.346;2022-11-15T02:09:03;3.00;;;1.42;;
65358;SDS011;52491;45.900;6.346;2022-11-15T02:11:28;1.75;;;1.50;;
65358;SDS011;52491;45.900;6.346;2022-11-15T02:13:55;4.57;;;2.25;;
65358;SDS011;52491;45.900;6.346;2022-11-15T02:19:10;4.22;;;1.33;;
65358;SDS011;52491;45.900;6.346;2022-11-15T02:35:43;3.95;;;1.70;;
65358;SDS011;52491;45.900;6.346;2022-11-15T02:38:26;4.07;;;1.43;;
65358;SDS011;52491;45.900;6.346;2022-11-15T02:40:59;3.00;;;1.67;;
65358;SDS011;52491;45.900;6.346;2022-11-15T02:51:44;1.85;;;1.20;;
65358;SDS011;52491;45.900;6.346;2022-11-15T02:54:28;2.92;;;1.50;;
65358;SDS011;52491;45.900;6.346;2022-11-15T02:56:58;2.80;;;1.40;;
65358;SDS011;52491;45.900;6.346;2022-11-15T02:59:43;1.88;;;1.30;;
65358;SDS011;52491;45.900;6.346;2022-11-15T03:05:17;1.23;;;1.00;;
65358;SDS011;52491;45.900;6.346;2022-11-15T03:07:52;1.35;;;1.00;;
65358;SDS011;52491;45.900;6.346;2022-11-15T03:13:21;2.25;;;1.40;;
65358;SDS011;52491;45.900;6.346;2022-11-15T03:15:56;1.83;;;1.25;;
65358;SDS011;52491;45.900;6.346;2022-11-15T03:18:45;3.55;;;0.90;;
65358;SDS011;52491;45.900;6.346;2022-11-15T03:21:17;1.13;;;1.10;;
65358;SDS011;52491;45.900;6.346;2022-11-15T03:23:45;1.98;;;1.20;;
65358;SDS011;52491;45.900;6.346;2022-11-15T03:26:14;4.43;;;1.13;;
65358;SDS011;52491;45.900;6.346;2022-11-15T03:28:50;2.35;;;1.20;;
65358;SDS011;52491;45.900;6.346;2022-11-15T03:31:20;1.63;;;1.20;;
65358;SDS011;52491;45.900;6.346;2022-11-15T03:34:07;1.95;;;1.15;;
65358;SDS011;52491;45.900;6.346;2022-11-15T03:36:39;1.88;;;0.90;;
65358;SDS011;52491;45.900;6.346;2022-11-15T03:39:06;1.33;;;0.98;;
65358;SDS011;52491;45.900;6.346;2022-11-15T03:41:52;4.97;;;1.20;;
65358;SDS011;52491;45.900;6.346;2022-11-15T03:47:34;1.67;;;1.08;;
65358;SDS011;52491;45.900;6.346;2022-11-15T03:52:58;1.23;;;0.95;;
65358;SDS011;52491;45.900;6.346;2022-11-15T03:55:24;0.80;;;0.80;;
65358;SDS011;52491;45.900;6.346;2022-11-15T03:57:52;1.85;;;1.17;;
65358;SDS011;52491;45.900;6.346;2022-11-15T04:00:21;2.63;;;1.85;;
65358;SDS011;52491;45.900;6.346;2022-11-15T04:02:47;2.55;;;0.80;;
65358;SDS011;52491;45.900;6.346;2022-11-15T04:05:12;2.08;;;0.80;;
65358;SDS011;52491;45.900;6.346;2022-11-15T04:07:38;1.30;;;0.70;;
65358;SDS011;52491;45.900;6.346;2022-11-15T04:10:04;1.13;;;0.90;;
65358;SDS011;52491;45.900;6.346;2022-11-15T04:12:33;1.95;;;1.02;;
65358;SDS011;52491;45.900;6.346;2022-11-15T04:15:05;1.27;;;0.98;;
65358;SDS011;52491;45.900;6.346;2022-11-15T04:17:33;1.38;;;1.08;;
65358;SDS011;52491;45.900;6.346;2022-11-15T04:20:09;2.22;;;1.20;;
65358;SDS011;52491;45.900;6.346;2022-11-15T04:23:00;1.40;;;1.00;;
65358;SDS011;52491;45.900;6.346;2022-11-15T04:25:46;3.03;;;1.48;;
65358;SDS011;52491;45.900;6.346;2022-11-15T04:28:15;1.70;;;1.20;;
65358;SDS011;52491;45.900;6.346;2022-11-15T04:30:40;1.25;;;0.88;;
65358;SDS011;52491;45.900;6.346;2022-11-15T04:33:06;1.88;;;0.93;;
65358;SDS011;52491;45.900;6.346;2022-11-15T04:35:31;1.40;;;1.02;;
65358;SDS011;52491;45.900;6.346;2022-11-15T04:37:57;1.30;;;0.98;;
65358;SDS011;52491;45.900;6.346;2022-11-15T04:40:23;1.50;;;1.02;;
65358;SDS011;52491;45.900;6.346;2022-11-15T04:42:49;3.85;;;1.50;;
65358;SDS011;52491;45.900;6.346;2022-11-15T04:45:15;1.75;;;1.45;;
65358;SDS011;52491;45.900;6.346;2022-11-15T04:47:42;1.65;;;1.20;;
65358;SDS011;52491;45.900;6.346;2022-11-15T04:50:10;1.52;;;1.05;;
65358;SDS011;52491;45.900;6.346;2022-11-15T04:52:38;1.63;;;1.38;;
65358;SDS011;52491;45.900;6.346;2022-11-15T04:55:05;1.67;;;0.90;;
65358;SDS011;52491;45.900;6.346;2022-11-15T04:57:31;1.05;;;0.68;;
65358;SDS011;52491;45.900;6.346;2022-11-15T04:59:56;1.80;;;0.80;;
65358;SDS011;52491;45.900;6.346;2022-11-15T05:02:22;1.67;;;1.27;;
65358;SDS011;52491;45.900;6.346;2022-11-15T05:04:48;1.80;;;1.20;;
65358;SDS011;52491;45.900;6.346;2022-11-15T05:07:13;2.22;;;1.40;;
65358;SDS011;52491;45.900;6.346;2022-11-15T05:09:39;1.75;;;1.10;;
65358;SDS011;52491;45.900;6.346;2022-11-15T05:12:04;1.98;;;1.45;;
65358;SDS011;52491;45.900;6.346;2022-11-15T05:14:30;1.73;;;1.27;;
65358;SDS011;52491;45.900;6.346;2022-11-15T05:16:55;3.60;;;1.00;;
65358;SDS011;52491;45.900;6.346;2022-11-15T05:19:21;1.20;;;1.10;;
65358;SDS011;52491;45.900;6.346;2022-11-15T05:21:47;1.77;;;0.98;;
65358;SDS011;52491;45.900;6.346;2022-11-15T05:24:12;4.47;;;1.08;;
65358;SDS011;52491;45.900;6.346;2022-11-15T05:26:38;2.17;;;1.52;;
65358;SDS011;52491;45.900;6.346;2022-11-15T05:29:03;1.55;;;1.17;;
65358;SDS011;52491;45.900;6.346;2022-11-15T05:31:29;0.88;;;0.80;;
65358;SDS011;52491;45.900;6.346;2022-11-15T05:33:55;2.22;;;1.20;;
65358;SDS011;52491;45.900;6.346;2022-11-15T05:39:04;1.70;;;0.80;;
65358;SDS011;52491;45.900;6.346;2022-11-15T05:41:35;3.00;;;1.08;;
65358;SDS011;52491;45.900;6.346;2022-11-15T05:44:02;1.35;;;1.20;;
65358;SDS011;52491;45.900;6.346;2022-11-15T05:46:31;1.77;;;0.80;;
65358;SDS011;52491;45.900;6.346;2022-11-15T05:48:58;1.35;;;1.00;;
65358;SDS011;52491;45.900;6.346;2022-11-15T05:51:24;2.10;;;0.85;;
65358;SDS011;52491;45.900;6.346;2022-11-15T05:53:53;0.98;;;0.90;;
65358;SDS011;52491;45.900;6.346;2022-11-15T05:56:21;1.13;;;1.00;;
65358;SDS011;52491;45.900;6.346;2022-11-15T05:58:47;1.90;;;1.48;;
65358;SDS011;52491;45.900;6.346;2022-11-15T06:01:13;0.80;;;0.80;;
65358;SDS011;52491;45.900;6.346;2022-11-15T06:03:39;2.30;;;1.13;;
65358;SDS011;52491;45.900;6.346;2022-11-15T06:06:04;4.22;;;0.90;;
65358;SDS011;52491;45.900;6.346;2022-11-15T06:08:30;1.52;;;1.20;;
65358;SDS011;52491;45.900;6.346;2022-11-15T06:10:56;1.75;;;1.08;;
65358;SDS011;52491;45.900;6.346;2022-11-15T06:13:21;3.05;;;1.05;;
65358;SDS011;52491;45.900;6.346;2022-11-15T06:15:47;2.03;;;1.13;;
65358;SDS011;52491;45.900;6.346;2022-11-15T06:18:12;1.98;;;1.35;;
65358;SDS011;52491;45.900;6.346;2022-11-15T06:20:38;4.57;;;1.05;;
65358;SDS011;52491;45.900;6.346;2022-11-15T06:23:04;3.33;;;1.52;;
65358;SDS011;52491;45.900;6.346;2022-11-15T06:25:30;2.22;;;0.98;;
65358;SDS011;52491;45.900;6.346;2022-11-15T06:27:57;3.97;;;1.70;;
65358;SDS011;52491;45.900;6.346;2022-11-15T06:30:24;5.72;;;1.83;;
65358;SDS011;52491;45.900;6.346;2022-11-15T06:33:02;11.93;;;1.42;;
65358;SDS011;52491;45.900;6.346;2022-11-15T06:35:29;2.08;;;1.40;;
65358;SDS011;52491;45.900;6.346;2022-11-15T06:38:01;2.03;;;1.35;;
65358;SDS011;52491;45.900;6.346;2022-11-15T06:40:35;5.45;;;1.42;;
65358;SDS011;52491;45.900;6.346;2022-11-15T06:43:03;3.40;;;1.20;;
65358;SDS011;52491;45.900;6.346;2022-11-15T06:45:30;2.15;;;1.63;;
65358;SDS011;52491;45.900;6.346;2022-11-15T06:47:57;3.05;;;1.83;;
65358;SDS011;52491;45.900;6.346;2022-11-15T06:50:23;2.33;;;1.52;;
65358;SDS011;52491;45.900;6.346;2022-11-15T06:52:49;6.05;;;1.63;;
65358;SDS011;52491;45.900;6.346;2022-11-15T06:55:15;1.77;;;1.33;;
65358;SDS011;52491;45.900;6.346;2022-11-15T06:57:47;2.20;;;1.40;;
65358;SDS011;52491;45.900;6.346;2022-11-15T07:00:14;4.68;;;1.27;;
65358;SDS011;52491;45.900;6.346;2022-11-15T07:02:41;3.72;;;1.15;;
65358;SDS011;52491;45.900;6.346;2022-11-15T07:05:07;3.85;;;1.25;;
65358;SDS011;52491;45.900;6.346;2022-11-15T07:07:32;1.70;;;1.20;;
65358;SDS011;52491;45.900;6.346;2022-11-15T07:09:58;5.88;;;0.82;;
65358;SDS011;52491;45.900;6.346;2022-11-15T07:12:23;1.90;;;1.38;;
65358;SDS011;52491;45.900;6.346;2022-11-15T07:14:49;2.75;;;1.33;;
65358;SDS011;52491;45.900;6.346;2022-11-15T07:17:14;2.40;;;1.10;;
65358;SDS011;52491;45.900;6.346;2022-11-15T07:19:40;1.10;;;1.00;;
65358;SDS011;52491;45.900;6.346;2022-11-15T07:22:05;0.98;;;0.90;;
65358;SDS011;52491;45.900;6.346;2022-11-15T07:24:31;4.32;;;1.30;;
65358;SDS011;52491;45.900;6.346;2022-11-15T07:26:56;4.40;;;1.20;;
65358;SDS011;52491;45.900;6.346;2022-11-15T07:29:22;2.55;;;1.30;;
65358;SDS011;52491;45.900;6.346;2022-11-15T07:31:48;1.75;;;1.02;;
65358;SDS011;52491;45.900;6.346;2022-11-15T07:34:15;2.30;;;0.93;;
65358;SDS011;52491;45.900;6.346;2022-11-15T07:36:41;2.45;;;1.02;;
65358;SDS011;52491;45.900;6.346;2022-11-15T07:39:07;0.93;;;0.70;;
65358;SDS011;52491;45.900;6.346;2022-11-15T07:41:33;1.58;;;1.05;;
65358;SDS011;52491;45.900;6.346;2022-11-15T07:43:58;1.33;;;0.80;;
65358;SDS011;52491;45.900;6.346;2022-11-15T07:46:25;1.25;;;0.82;;
65358;SDS011;52491;45.900;6.346;2022-11-15T07:48:50;1.98;;;1.17;;
65358;SDS011;52491;45.900;6.346;2022-11-15T07:51:16;2.25;;;1.30;;
65358;SDS011;52491;45.900;6.346;2022-11-15T07:53:42;4.25;;;1.60;;
65358;SDS011;52491;45.900;6.346;2022-11-15T07:56:09;2.33;;;1.13;;
65358;SDS011;52491;45.900;6.346;2022-11-15T07:58:35;0.73;;;0.73;;
65358;SDS011;52491;45.900;6.346;2022-11-15T08:01:04;1.42;;;1.08;;
65358;SDS011;52491;45.900;6.346;2022-11-15T08:03:31;1.50;;;0.90;;
65358;SDS011;52491;45.900;6.346;2022-11-15T08:05:57;2.63;;;1.05;;
65358;SDS011;52491;45.900;6.346;2022-11-15T08:08:23;1.00;;;0.88;;
65358;SDS011;52491;45.900;6.346;2022-11-15T08:10:48;1.90;;;1.35;;
65358;SDS011;52491;45.900;6.346;2022-11-15T08:13:14;1.52;;;0.70;;
65358;SDS011;52491;45.900;6.346;2022-11-15T08:15:40;1.17;;;0.98;;
65358;SDS011;52491;45.900;6.346;2022-11-15T08:18:06;1.90;;;0.95;;
65358;SDS011;52491;45.900;6.346;2022-11-15T08:20:37;1.50;;;1.13;;
65358;SDS011;52491;45.900;6.346;2022-11-15T08:23:03;3.35;;;1.23;;
65358;SDS011;52491;45.900;6.346;2022-11-15T08:25:30;0.82;;;0.60;;
65358;SDS011;52491;45.900;6.346;2022-11-15T08:27:57;3.30;;;1.02;;
65358;SDS011;52491;45.900;6.346;2022-11-15T08:30:25;4.63;;;1.50;;
65358;SDS011;52491;45.900;6.346;2022-11-15T08:32:52;2.63;;;1.15;;
65358;SDS011;52491;45.900;6.346;2022-11-15T08:35:18;1.17;;;0.80;;
65358;SDS011;52491;45.900;6.346;2022-11-15T08:37:45;1.73;;;0.90;;
65358;SDS011;52491;45.900;6.346;2022-11-15T08:40:11;3.33;;;1.20;;
65358;SDS011;52491;45.900;6.346;2022-11-15T08:42:38;1.75;;;0.98;;
65358;SDS011;52491;45.900;6.346;2022-11-15T08:45:05;1.42;;;1.00;;
65358;SDS011;52491;45.900;6.346;2022-11-15T08:47:31;1.58;;;0.80;;
65358;SDS011;52491;45.900;6.346;2022-11-15T08:49:57;3.15;;;1.17;;
65358;SDS011;52491;45.900;6.346;2022-11-15T08:52:22;1.48;;;1.08;;
65358;SDS011;52491;45.900;6.346;2022-11-15T08:54:48;1.63;;;1.00;;
65358;SDS011;52491;45.900;6.346;2022-11-15T08:57:13;1.10;;;0.95;;
65358;SDS011;52491;45.900;6.346;2022-11-15T08:59:39;2.63;;;1.23;;
65358;SDS011;52491;45.900;6.346;2022-11-15T09:02:05;1.23;;;1.02;;
65358;SDS011;52491;45.900;6.346;2022-11-15T09:04:30;2.17;;;1.13;;
65358;SDS011;52491;45.900;6.346;2022-11-15T09:06:56;1.13;;;1.02;;
65358;SDS011;52491;45.900;6.346;2022-11-15T09:09:22;2.63;;;1.10;;
65358;SDS011;52491;45.900;6.346;2022-11-15T09:11:47;2.20;;;0.95;;
65358;SDS011;52491;45.900;6.346;2022-11-15T09:14:13;3.38;;;1.02;;
65358;SDS011;52491;45.900;6.346;2022-11-15T09:16:39;3.80;;;1.10;;
65358;SDS011;52491;45.900;6.346;2022-11-15T09:19:05;1.05;;;0.95;;
65358;SDS011;52491;45.900;6.346;2022-11-15T09:21:31;1.10;;;0.80;;
65358;SDS011;52491;45.900;6.346;2022-11-15T09:23:57;2.53;;;1.52;;
65358;SDS011;52491;45.900;6.346;2022-11-15T09:26:23;2.63;;;1.17;;
65358;SDS011;52491;45.900;6.346;2022-11-15T09:28:48;1.70;;;1.00;;
65358;SDS011;52491;45.900;6.346;2022-11-15T09:31:14;3.08;;;1.05;;
65358;SDS011;52491;45.900;6.346;2022-11-15T09:33:39;2.67;;;0.90;;
65358;SDS011;52491;45.900;6.346;2022-11-15T09:36:08;0.73;;;0.73;;
65358;SDS011;52491;45.900;6.346;2022-11-15T09:38:34;2.47;;;0.98;;
65358;SDS011;52491;45.900;6.346;2022-11-15T09:43:42;5.13;;;0.95;;
65358;SDS011;52491;45.900;6.346;2022-11-15T09:48:51;3.13;;;1.45;;
65358;SDS011;52491;45.900;6.346;2022-11-15T09:51:35;1.63;;;1.17;;
65358;SDS011;52491;45.900;6.346;2022-11-15T09:56:52;1.70;;;1.00;;
65358;SDS011;52491;45.900;6.346;2022-11-15T10:04:55;1.42;;;0.77;;
65358;SDS011;52491;45.900;6.346;2022-11-15T10:10:10;1.50;;;0.85;;
65358;SDS011;52491;45.900;6.346;2022-11-15T10:12:57;1.55;;;0.80;;
65358;SDS011;52491;45.900;6.346;2022-11-15T10:15:23;1.52;;;1.00;;
65358;SDS011;52491;45.900;6.346;2022-11-15T10:20:22;1.02;;;0.70;;
65358;SDS011;52491;45.900;6.346;2022-11-15T10:22:54;1.45;;;0.88;;
65358;SDS011;52491;45.900;6.346;2022-11-15T10:25:24;1.35;;;0.70;;
65358;SDS011;52491;45.900;6.346;2022-11-15T10:30:51;0.70;;;0.70;;
65358;SDS011;52491;45.900;6.346;2022-11-15T10:35:44;0.82;;;0.82;;
65358;SDS011;52491;45.900;6.346;2022-11-15T10:38:10;1.67;;;0.80;;
65358;SDS011;52491;45.900;6.346;2022-11-15T10:40:37;1.58;;;0.65;;
65358;SDS011;52491;45.900;6.346;2022-11-15T10:45:36;0.77;;;0.75;;
65358;SDS011;52491;45.900;6.346;2022-11-15T10:50:36;1.27;;;0.93;;
65358;SDS011;52491;45.900;6.346;2022-11-15T10:53:02;1.50;;;0.75;;
65358;SDS011;52491;45.900;6.346;2022-11-15T10:55:30;1.63;;;0.93;;
65358;SDS011;52491;45.900;6.346;2022-11-15T10:58:06;1.02;;;0.70;;
65358;SDS011;52491;45.900;6.346;2022-11-15T11:00:46;0.70;;;0.70;;
65358;SDS011;52491;45.900;6.346;2022-11-15T11:06:16;1.35;;;0.90;;
65358;SDS011;52491;45.900;6.346;2022-11-15T11:08:59;1.13;;;0.75;;
65358;SDS011;52491;45.900;6.346;2022-11-15T11:11:45;0.93;;;0.80;;
65358;SDS011;52491;45.900;6.346;2022-11-15T11:14:23;1.00;;;0.70;;
65358;SDS011;52491;45.900;6.346;2022-11-15T11:27:45;0.77;;;0.60;;
65358;SDS011;52491;45.900;6.346;2022-11-15T11:30:34;1.13;;;0.82;;
65358;SDS011;52491;45.900;6.346;2022-11-15T11:33:26;2.55;;;1.08;;
65358;SDS011;52491;45.900;6.346;2022-11-15T11:36:06;3.30;;;1.20;;
65358;SDS011;52491;45.900;6.346;2022-11-15T11:38:54;2.47;;;0.98;;
65358;SDS011;52491;45.900;6.346;2022-11-15T11:41:39;1.65;;;1.02;;
65358;SDS011;52491;45.900;6.346;2022-11-15T11:49:56;2.30;;;1.00;;
65358;SDS011;52491;45.900;6.346;2022-11-15T11:52:27;3.28;;;1.08;;
65358;SDS011;52491;45.900;6.346;2022-11-15T11:55:15;3.13;;;1.05;;
65358;SDS011;52491;45.900;6.346;2022-11-15T11:57:50;4.20;;;1.55;;
65358;SDS011;52491;45.900;6.346;2022-11-15T12:00:24;2.25;;;1.30;;
65358;SDS011;52491;45.900;6.346;2022-11-15T12:05:29;4.25;;;1.13;;
65358;SDS011;52491;45.900;6.346;2022-11-15T12:08:38;2.90;;;1.35;;
65358;SDS011;52491;45.900;6.346;2022-11-15T12:11:03;2.22;;;1.40;;
65358;SDS011;52491;45.900;6.346;2022-11-15T12:13:38;1.52;;;0.93;;
65358;SDS011;52491;45.900;6.346;2022-11-15T12:16:14;1.95;;;1.10;;
65358;SDS011;52491;45.900;6.346;2022-11-15T12:18:48;1.88;;;0.70;;
65358;SDS011;52491;45.900;6.346;2022-11-15T12:21:19;2.22;;;0.93;;
65358;SDS011;52491;45.900;6.346;2022-11-15T12:24:06;4.30;;;1.67;;
65358;SDS011;52491;45.900;6.346;2022-11-15T12:26:39;1.92;;;0.90;;
65358;SDS011;52491;45.900;6.346;2022-11-15T12:29:15;5.70;;;0.93;;
65358;SDS011;52491;45.900;6.346;2022-11-15T12:34:51;1.58;;;1.02;;
65358;SDS011;52491;45.900;6.346;2022-11-15T12:45:38;2.63;;;1.23;;
65358;SDS011;52491;45.900;6.346;2022-11-15T12:50:56;2.33;;;1.25;;
65358;SDS011;52491;45.900;6.346;2022-11-15T12:58:28;3.30;;;0.80;;
65358;SDS011;52491;45.900;6.346;2022-11-15T13:01:06;1.08;;;0.63;;
65358;SDS011;52491;45.900;6.346;2022-11-15T13:03:32;1.45;;;0.85;;
65358;SDS011;52491;45.900;6.346;2022-11-15T13:05:59;2.05;;;1.10;;
65358;SDS011;52491;45.900;6.346;2022-11-15T13:08:40;1.70;;;0.80;;
65358;SDS011;52491;45.900;6.346;2022-11-15T13:14:38;1.92;;;0.82;;
65358;SDS011;52491;45.900;6.346;2022-11-15T13:19:55;0.88;;;0.80;;
65358;SDS011;52491;45.900;6.346;2022-11-15T13:22:38;1.05;;;0.70;;
65358;SDS011;52491;45.900;6.346;2022-11-15T13:30:34;1.80;;;1.00;;
65358;SDS011;52491;45.900;6.346;2022-11-15T13:33:06;1.27;;;0.80;;
65358;SDS011;52491;45.900;6.346;2022-11-15T13:35:36;1.52;;;0.77;;
65358;SDS011;52491;45.900;6.346;2022-11-15T13:38:05;1.63;;;0.57;;
65358;SDS011;52491;45.900;6.346;2022-11-15T13:40:35;2.10;;;0.80;;
65358;SDS011;52491;45.900;6.346;2022-11-15T13:43:24;0.90;;;0.88;;
65358;SDS011;52491;45.900;6.346;2022-11-15T13:48:46;0.95;;;0.60;;
65358;SDS011;52491;45.900;6.346;2022-11-15T13:54:13;1.02;;;0.73;;
65358;SDS011;52491;45.900;6.346;2022-11-15T13:57:09;0.60;;;0.50;;
65358;SDS011;52491;45.900;6.346;2022-11-15T13:59:37;1.13;;;0.95;;
65358;SDS011;52491;45.900;6.346;2022-11-15T14:04:49;1.55;;;0.70;;
65358;SDS011;52491;45.900;6.346;2022-11-15T14:07:23;0.85;;;0.80;;
65358;SDS011;52491;45.900;6.346;2022-11-15T14:09:50;1.00;;;0.90;;
65358;SDS011;52491;45.900;6.346;2022-11-15T14:14:57;2.10;;;1.00;;
65358;SDS011;52491;45.900;6.346;2022-11-15T14:19:56;0.88;;;0.63;;
65358;SDS011;52491;45.900;6.346;2022-11-15T14:22:23;0.70;;;0.55;;
65358;SDS011;52491;45.900;6.346;2022-11-15T14:27:38;2.67;;;0.95;;
65358;SDS011;52491;45.900;6.346;2022-11-15T14:30:06;3.25;;;0.60;;
65358;SDS011;52491;45.900;6.346;2022-11-15T14:35:16;1.92;;;0.80;;
65358;SDS011;52491;45.900;6.346;2022-11-15T14:37:44;0.70;;;0.68;;
65358;SDS011;52491;45.900;6.346;2022-11-15T14:40:12;3.53;;;0.70;;
65358;SDS011;52491;45.900;6.346;2022-11-15T14:42:40;1.98;;;0.98;;
65358;SDS011;52491;45.900;6.346;2022-11-15T14:45:12;2.05;;;0.90;;
65358;SDS011;52491;45.900;6.346;2022-11-15T14:47:40;0.90;;;0.77;;
65358;SDS011;52491;45.900;6.346;2022-11-15T14:50:10;1.23;;;0.77;;
65358;SDS011;52491;45.900;6.346;2022-11-15T14:52:37;1.42;;;0.93;;
65358;SDS011;52491;45.900;6.346;2022-11-15T14:55:03;1.33;;;0.77;;
65358;SDS011;52491;45.900;6.346;2022-11-15T14:57:35;1.20;;;0.75;;
65358;SDS011;52491;45.900;6.346;2022-11-15T15:00:01;1.60;;;1.25;;
65358;SDS011;52491;45.900;6.346;2022-11-15T15:02:27;1.00;;;0.80;;
65358;SDS011;52491;45.900;6.346;2022-11-15T15:04:53;0.70;;;0.60;;
65358;SDS011;52491;45.900;6.346;2022-11-15T15:07:19;1.25;;;0.75;;
65358;SDS011;52491;45.900;6.346;2022-11-15T15:09:45;1.73;;;0.80;;
65358;SDS011;52491;45.900;6.346;2022-11-15T15:12:17;2.17;;;1.00;;
65358;SDS011;52491;45.900;6.346;2022-11-15T15:14:45;1.17;;;1.00;;
65358;SDS011;52491;45.900;6.346;2022-11-15T15:17:12;1.65;;;0.77;;
65358;SDS011;52491;45.900;6.346;2022-11-15T15:19:38;1.98;;;0.82;;
65358;SDS011;52491;45.900;6.346;2022-11-15T15:22:03;0.90;;;0.60;;
65358;SDS011;52491;45.900;6.346;2022-11-15T15:24:29;0.68;;;0.68;;
65358;SDS011;52491;45.900;6.346;2022-11-15T15:26:55;1.58;;;0.80;;
65358;SDS011;52491;45.900;6.346;2022-11-15T15:29:20;1.33;;;0.77;;
65358;SDS011;52491;45.900;6.346;2022-11-15T15:31:46;1.10;;;1.00;;
65358;SDS011;52491;45.900;6.346;2022-11-15T15:34:11;2.13;;;0.70;;
65358;SDS011;52491;45.900;6.346;2022-11-15T15:36:37;1.60;;;0.60;;
65358;SDS011;52491;45.900;6.346;2022-11-15T15:39:02;0.90;;;0.80;;
65358;SDS011;52491;45.900;6.346;2022-11-15T15:41:28;1.33;;;0.88;;
65358;SDS011;52491;45.900;6.346;2022-11-15T15:43:54;2.80;;;1.02;;
65358;SDS011;52491;45.900;6.346;2022-11-15T15:46:19;1.08;;;0.90;;
65358;SDS011;52491;45.900;6.346;2022-11-15T15:48:45;1.40;;;0.77;;
65358;SDS011;52491;45.900;6.346;2022-11-15T15:51:11;1.75;;;0.77;;
65358;SDS011;52491;45.900;6.346;2022-11-15T15:53:37;2.47;;;0.90;;
65358;SDS011;52491;45.900;6.346;2022-11-15T15:56:03;0.60;;;0.60;;
65358;SDS011;52491;45.900;6.346;2022-11-15T15:58:29;1.42;;;0.85;;
65358;SDS011;52491;45.900;6.346;2022-11-15T16:00:57;2.03;;;0.80;;
65358;SDS011;52491;45.900;6.346;2022-11-15T16:03:22;0.70;;;0.68;;
65358;SDS011;52491;45.900;6.346;2022-11-15T16:05:49;1.42;;;0.93;;
65358;SDS011;52491;45.900;6.346;2022-11-15T16:08:18;2.22;;;0.73;;
65358;SDS011;52491;45.900;6.346;2022-11-15T16:10:45;0.73;;;0.60;;
65358;SDS011;52491;45.900;6.346;2022-11-15T16:13:11;0.95;;;0.85;;
65358;SDS011;52491;45.900;6.346;2022-11-15T16:15:37;0.63;;;0.63;;
65358;SDS011;52491;45.900;6.346;2022-11-15T16:18:03;1.08;;;0.95;;
65358;SDS011;52491;45.900;6.346;2022-11-15T16:23:05;0.98;;;0.63;;
65358;SDS011;52491;45.900;6.346;2022-11-15T16:25:44;0.60;;;0.60;;
65358;SDS011;52491;45.900;6.346;2022-11-15T16:28:22;1.02;;;0.70;;
65358;SDS011;52491;45.900;6.346;2022-11-15T16:33:27;1.90;;;0.80;;
65358;SDS011;52491;45.900;6.346;2022-11-15T16:35:52;3.92;;;0.90;;
65358;SDS011;52491;45.900;6.346;2022-11-15T16:38:18;2.38;;;0.85;;
65358;SDS011;52491;45.900;6.346;2022-11-15T16:40:43;1.20;;;0.75;;
65358;SDS011;52491;45.900;6.346;2022-11-15T16:43:09;1.08;;;0.52;;
65358;SDS011;52491;45.900;6.346;2022-11-15T16:45:35;1.02;;;0.70;;
65358;SDS011;52491;45.900;6.346;2022-11-15T16:48:01;0.73;;;0.57;;
65358;SDS011;52491;45.900;6.346;2022-11-15T16:50:28;2.60;;;1.10;;
65358;SDS011;52491;45.900;6.346;2022-11-15T16:52:57;0.73;;;0.73;;
65358;SDS011;52491;45.900;6.346;2022-11-15T16:55:27;1.38;;;0.50;;
65358;SDS011;52491;45.900;6.346;2022-11-15T16:57:54;1.10;;;0.70;;
65358;SDS011;52491;45.900;6.346;2022-11-15T17:00:22;1.00;;;0.60;;
65358;SDS011;52491;45.900;6.346;2022-11-15T17:02:49;0.50;;;0.50;;
65358;SDS011;52491;45.900;6.346;2022-11-15T17:05:16;0.60;;;0.50;;
65358;SDS011;52491;45.900;6.346;2022-11-15T17:07:45;1.90;;;0.80;;
65358;SDS011;52491;45.900;6.346;2022-11-15T17:10:18;2.47;;;0.82;;
65358;SDS011;52491;45.900;6.346;2022-11-15T17:12:44;2.03;;;0.57;;
65358;SDS011;52491;45.900;6.346;2022-11-15T17:15:11;1.35;;;0.68;;
65358;SDS011;52491;45.900;6.346;2022-11-15T17:17:37;2.22;;;1.10;;
65358;SDS011;52491;45.900;6.346;2022-11-15T17:20:03;1.02;;;1.00;;
65358;SDS011;52491;45.900;6.346;2022-11-15T17:22:34;0.90;;;0.60;;
65358;SDS011;52491;45.900;6.346;2022-11-15T17:25:00;2.35;;;1.08;;
65358;SDS011;52491;45.900;6.346;2022-11-15T17:27:26;3.47;;;2.47;;
65358;SDS011;52491;45.900;6.346;2022-11-15T17:29:52;13.18;;;12.02;;